createdAt,value
2023-05-05T00:01:34.348Z,99746.50
2023-05-05T00:04:37.075Z,99746.07
2023-05-05T00:07:39.800Z,99748.92
2023-05-05T00:10:45.787Z,99753.52
2023-05-05T00:13:48.575Z,99751.55
2023-05-05T00:16:51.381Z,99752.42
2023-05-05T00:19:54.206Z,99749.81
2023-05-05T00:22:57.029Z,99748.45
2023-05-05T00:25:59.786Z,99745.30
2023-05-05T00:29:02.590Z,99745.88
2023-05-05T00:32:05.449Z,99743.80
2023-05-05T00:35:08.919Z,99745.45
2023-05-05T00:38:11.689Z,99741.83
2023-05-05T00:41:14.530Z,99742.17
2023-05-05T00:44:17.263Z,99736.55
2023-05-05T00:47:20.399Z,99733.91
2023-05-05T00:50:26.806Z,99734.96
2023-05-05T00:53:29.856Z,99733.10
2023-05-05T00:56:33.287Z,99734.52
2023-05-05T00:59:37.461Z,99733.21
2023-05-05T01:02:41.440Z,99731.73
2023-05-05T01:06:04.648Z,99730.81
2023-05-05T01:09:20.564Z,99735.23
2023-05-05T01:12:44.785Z,99733.42
2023-05-05T01:15:53.515Z,99729.29
2023-05-05T01:19:24.407Z,99727.86
2023-05-05T01:22:52.668Z,99726.54
2023-05-05T01:26:11.903Z,99724.08
2023-05-05T01:29:52.633Z,99723.42
2023-05-05T01:33:01.280Z,99722.55
2023-05-05T01:36:10.653Z,99720.37
2023-05-05T01:39:16.852Z,99715.83
2023-05-05T01:42:22.692Z,99715.70
2023-05-05T01:45:32.205Z,99713.28
2023-05-05T01:48:37.002Z,99711.47
2023-05-05T01:51:41.464Z,99711.58
2023-05-05T01:54:46.633Z,99710.54
2023-05-05T01:57:50.850Z,99712.67
2023-05-05T02:00:56.733Z,99711.46
2023-05-05T02:04:02.302Z,99706.43
2023-05-05T02:07:06.291Z,99707.20
2023-05-05T02:10:12.358Z,99711.02
2023-05-05T02:13:17.448Z,99716.08
2023-05-05T02:16:22.120Z,99717.77
2023-05-05T02:19:30.988Z,99715.48
2023-05-05T02:22:34.178Z,99709.13
2023-05-05T02:25:44.198Z,99709.90
2023-05-05T02:28:52.844Z,99704.16
2023-05-05T02:32:02.511Z,99706.83
2023-05-05T02:35:14.308Z,99706.87
2023-05-05T02:38:19.563Z,99705.62
2023-05-05T02:41:27.590Z,99707.46
2023-05-05T02:44:33.145Z,99710.02
2023-05-05T02:47:37.273Z,99706.52
2023-05-05T02:50:41.389Z,99707.95
2023-05-05T02:53:56.360Z,99710.67
2023-05-05T02:57:00.592Z,99711.75
2023-05-05T03:00:24.115Z,99711.90
2023-05-05T03:03:55.995Z,99706.33
2023-05-05T03:07:06.956Z,99705.27
2023-05-05T03:10:17.734Z,99702.20
2023-05-05T03:13:26.951Z,99700.11
2023-05-05T03:16:32.176Z,99699.40
2023-05-05T03:19:36.327Z,99700.34
2023-05-05T03:22:39.360Z,99698.15
2023-05-05T03:25:45.037Z,99698.85
2023-05-05T03:28:52.672Z,99701.86
2023-05-05T03:32:01.553Z,99704.33
2023-05-05T03:35:05.508Z,99705.27
2023-05-05T03:38:09.212Z,99708.13
2023-05-05T03:41:12.017Z,99705.58
2023-05-05T03:44:14.801Z,99704.11
2023-05-05T03:47:17.654Z,99709.50
2023-05-05T03:50:21.080Z,99708.05
2023-05-05T03:53:24.730Z,99714.61
2023-05-05T03:56:27.609Z,99712.98
2023-05-05T03:59:30.409Z,99717.75
2023-05-05T04:02:33.351Z,99715.29
2023-05-05T04:05:38.063Z,99716.55
2023-05-05T04:08:41.433Z,99716.55
2023-05-05T04:11:44.232Z,99709.91
2023-05-05T04:14:47.785Z,99711.33
2023-05-05T04:17:50.898Z,99709.75
2023-05-05T04:20:53.995Z,99714.67
2023-05-05T04:23:58.496Z,99706.44
2023-05-05T04:27:02.415Z,99706.91
2023-05-05T04:30:06.902Z,99704.91
2023-05-05T04:33:10.832Z,99711.14
2023-05-05T04:36:13.788Z,99713.94
2023-05-05T04:39:17.510Z,99723.11
2023-05-05T04:42:20.388Z,99726.29
2023-05-05T04:45:23.231Z,99725.86
2023-05-05T04:48:26.210Z,99723.91
2023-05-05T04:51:29.275Z,99725.78
2023-05-05T04:54:36.415Z,99733.27
2023-05-05T04:57:39.293Z,99732.83
2023-05-05T05:00:42.380Z,99733.91
2023-05-05T05:03:45.292Z,99736.64
2023-05-05T05:06:48.407Z,99741.02
2023-05-05T05:09:51.600Z,99739.08
2023-05-05T05:12:54.513Z,99741.74
2023-05-05T05:15:57.526Z,99747.55
2023-05-05T05:19:01.638Z,99749.18
2023-05-05T05:22:06.146Z,99751.70
2023-05-05T05:25:10.490Z,99753.88
2023-05-05T05:28:13.308Z,99756.30
2023-05-05T05:31:21.129Z,99754.32
2023-05-05T05:34:24.219Z,99753.51
2023-05-05T05:37:31.143Z,99756.63
2023-05-05T05:40:34.703Z,99756.14
2023-05-05T05:43:38.085Z,99757.54
2023-05-05T05:46:41.258Z,99759.73
2023-05-05T05:49:44.190Z,99763.20
2023-05-05T05:52:47.492Z,99762.27
2023-05-05T05:55:51.320Z,99757.95
2023-05-05T05:58:54.144Z,99758.31
2023-05-05T06:01:57.328Z,99764.41
2023-05-05T06:05:00.721Z,99763.02
2023-05-05T06:08:03.861Z,99757.67
2023-05-05T06:11:08.118Z,99758.10
2023-05-05T06:14:10.962Z,99761.69
2023-05-05T06:17:14.269Z,99768.60
2023-05-05T06:20:17.368Z,99762.92
2023-05-05T06:23:20.185Z,99768.33
2023-05-05T06:26:27.584Z,99764.63
2023-05-05T06:29:30.329Z,99768.81
2023-05-05T06:32:33.267Z,99760.87
2023-05-05T06:35:36.195Z,99766.50
2023-05-05T06:38:38.895Z,99768.55
2023-05-05T06:41:41.870Z,99772.54
2023-05-05T06:44:44.597Z,99775.95
2023-05-05T06:47:47.420Z,99780.74
2023-05-05T06:50:50.332Z,99779.89
2023-05-05T06:53:53.039Z,99779.92
2023-05-05T06:56:57.525Z,99779.92
2023-05-05T07:00:19.769Z,99785.65
2023-05-05T07:03:22.563Z,99784.73
2023-05-05T07:06:25.351Z,99786.42
2023-05-05T07:09:28.123Z,99781.34
2023-05-05T07:12:31.331Z,99784.98
2023-05-05T07:15:34.643Z,99782.72
2023-05-05T07:18:37.488Z,99786.24
2023-05-05T07:21:40.210Z,99782.96
2023-05-05T07:24:42.917Z,99781.73
2023-05-05T07:27:45.866Z,99777.75
2023-05-05T07:30:48.686Z,99776.25
2023-05-05T07:33:51.734Z,99779.22
2023-05-05T07:36:56.439Z,99781.20
2023-05-05T07:39:59.150Z,99782.10
2023-05-05T07:43:02.027Z,99781.02
2023-05-05T07:46:04.872Z,99781.82
2023-05-05T07:49:07.765Z,99777.40
2023-05-05T07:52:10.636Z,99772.05
2023-05-05T07:55:13.432Z,99770.87
2023-05-05T07:58:16.325Z,99775.73
2023-05-05T08:01:19.314Z,99776.46
2023-05-05T08:04:22.150Z,99779.38
2023-05-05T08:07:25.024Z,99778.20
2023-05-05T08:10:27.838Z,99781.25
2023-05-05T08:13:31.125Z,99778.33
2023-05-05T08:16:34.486Z,99775.73
2023-05-05T08:19:37.459Z,99774.44
2023-05-05T08:22:42.036Z,99780.90
2023-05-05T08:25:44.794Z,99781.30
2023-05-05T08:28:48.694Z,99782.55
2023-05-05T08:31:51.524Z,99779.58
2023-05-05T08:34:54.463Z,99773.38
2023-05-05T08:37:59.099Z,99771.19
2023-05-05T08:41:02.149Z,99769.06
2023-05-05T08:44:05.044Z,99770.82
2023-05-05T08:47:11.198Z,99771.19
2023-05-05T08:50:14.148Z,99770.34
2023-05-05T08:53:21.937Z,99768.52
2023-05-05T08:56:33.136Z,99769.16
2023-05-05T08:59:37.287Z,99766.70
2023-05-05T09:02:42.887Z,99761.95
2023-05-05T09:05:45.897Z,99757.64
2023-05-05T09:08:49.644Z,99757.85
2023-05-05T09:11:53.877Z,99759.23
2023-05-05T09:14:58.981Z,99757.05
2023-05-05T09:18:02.462Z,99759.12
2023-05-05T09:21:25.993Z,99762.58
2023-05-05T09:24:28.895Z,99762.84
2023-05-05T09:27:36.472Z,99758.23
2023-05-05T09:30:41.181Z,99752.39
2023-05-05T09:33:44.235Z,99753.66
2023-05-05T09:36:48.931Z,99757.94
2023-05-05T09:39:56.201Z,99757.27
2023-05-05T09:43:02.963Z,99759.00
2023-05-05T09:46:07.723Z,99756.04
2023-05-05T09:49:23.401Z,99754.89
2023-05-05T09:52:26.848Z,99757.16
2023-05-05T09:55:33.375Z,99758.13
2023-05-05T09:58:36.527Z,99756.15
2023-05-05T10:01:39.533Z,99752.67
2023-05-05T10:04:43.846Z,99752.91
2023-05-05T10:07:48.106Z,99750.46
2023-05-05T10:11:00.576Z,99746.67
2023-05-05T10:14:06.520Z,99744.66
2023-05-05T10:17:10.135Z,99742.83
2023-05-05T10:20:14.433Z,99749.31
2023-05-05T10:23:20.806Z,99741.90
2023-05-05T10:26:26.733Z,99739.74
2023-05-05T10:29:52.873Z,99740.48
2023-05-05T10:33:26.721Z,99738.39
2023-05-05T10:36:27.932Z,99737.08
2023-05-05T10:39:31.531Z,99734.50
2023-05-05T10:42:37.371Z,99727.65
2023-05-05T10:45:41.512Z,99731.69
2023-05-05T10:48:56.603Z,99730.51
2023-05-05T10:52:12.716Z,99728.73
2023-05-05T10:55:31.876Z,99718.63
2023-05-05T10:58:58.339Z,99719.39
2023-05-05T11:02:18.209Z,99711.54
2023-05-05T11:05:23.799Z,99719.20
2023-05-05T11:08:27.174Z,99710.36
2023-05-05T11:12:02.956Z,99719.68
2023-05-05T11:15:24.251Z,99713.34
2023-05-05T11:18:43.305Z,99718.70
2023-05-05T11:22:02.285Z,99716.10
2023-05-05T11:25:37.528Z,99716.74
2023-05-05T11:29:02.218Z,99713.23
2023-05-05T11:32:15.886Z,99716.07
2023-05-05T11:35:18.983Z,99714.09
2023-05-05T11:38:44.675Z,99715.42
2023-05-05T11:42:22.556Z,99711.96
2023-05-05T11:45:25.793Z,99712.19
2023-05-05T11:48:28.585Z,99715.13
2023-05-05T11:51:31.881Z,99717.68
2023-05-05T11:54:36.747Z,99716.03
2023-05-05T11:57:39.565Z,99719.26
2023-05-05T12:00:42.340Z,99716.52
2023-05-05T12:03:46.005Z,99711.80
2023-05-05T12:06:49.378Z,99715.41
2023-05-05T12:09:52.978Z,99714.95
2023-05-05T12:12:56.100Z,99712.98
2023-05-05T12:16:16.537Z,99713.75
2023-05-05T12:19:19.302Z,99712.39
2023-05-05T12:22:26.464Z,99710.73
2023-05-05T12:25:36.995Z,99710.70
2023-05-05T12:28:46.482Z,99705.30
2023-05-05T12:31:49.504Z,99703.98
2023-05-05T12:34:54.880Z,99703.30
2023-05-05T12:37:58.584Z,99704.56
2023-05-05T12:41:02.526Z,99703.69
2023-05-05T12:44:05.435Z,99706.31
2023-05-05T12:47:08.718Z,99705.81
2023-05-05T12:50:11.552Z,99710.14
2023-05-05T12:53:24.899Z,99702.88
2023-05-05T12:56:34.911Z,99705.87
2023-05-05T12:59:37.697Z,99708.35
2023-05-05T13:02:40.657Z,99714.17
2023-05-05T13:05:43.743Z,99715.54
2023-05-05T13:08:46.720Z,99707.23
2023-05-05T13:11:49.496Z,99705.02
2023-05-05T13:14:52.212Z,99697.42
2023-05-05T13:18:01.704Z,99699.90
2023-05-05T13:21:04.770Z,99698.62
2023-05-05T13:24:25.325Z,99696.44
2023-05-05T13:27:30.629Z,99698.02
2023-05-05T13:30:33.504Z,99698.51
2023-05-05T13:33:36.264Z,99699.52
2023-05-05T13:36:39.029Z,99689.23
2023-05-05T13:39:41.832Z,99681.97
2023-05-05T13:42:44.618Z,99677.48
2023-05-05T13:45:47.372Z,99687.53
2023-05-05T13:48:52.498Z,99679.70
2023-05-05T13:51:59.159Z,99677.77
2023-05-05T13:55:01.874Z,99675.10
2023-05-05T13:58:04.719Z,99673.14
2023-05-05T14:01:07.487Z,99681.79
2023-05-05T14:04:10.594Z,99676.98
2023-05-05T14:07:13.435Z,99666.77
2023-05-05T14:10:16.217Z,99677.23
2023-05-05T14:13:19.206Z,99685.64
2023-05-05T14:16:22.117Z,99675.58
2023-05-05T14:19:25.061Z,99682.70
2023-05-05T14:22:27.804Z,99678.98
2023-05-05T14:25:30.503Z,99672.44
2023-05-05T14:28:33.305Z,99680.65
2023-05-05T14:31:36.839Z,99676.17
2023-05-05T14:34:39.794Z,99687.13
2023-05-05T14:37:42.568Z,99686.52
2023-05-05T14:40:45.389Z,99691.14
2023-05-05T14:43:48.083Z,99698.89
2023-05-05T14:46:51.347Z,99702.56
2023-05-05T14:49:54.210Z,99700.69
2023-05-05T14:52:56.992Z,99699.61
2023-05-05T14:56:01.080Z,99697.23
2023-05-05T14:59:03.813Z,99693.14
2023-05-05T15:02:07.245Z,99697.76
2023-05-05T15:05:10.387Z,99704.05
2023-05-05T15:08:14.600Z,99701.44
2023-05-05T15:11:17.363Z,99702.45
2023-05-05T15:14:20.160Z,99706.19
2023-05-05T15:17:23.008Z,99702.52
2023-05-05T15:20:25.844Z,99696.27
2023-05-05T15:23:28.601Z,99700.03
2023-05-05T15:26:31.963Z,99705.71
2023-05-05T15:29:34.853Z,99707.95
2023-05-05T15:32:37.993Z,99711.36
2023-05-05T15:35:40.711Z,99712.23
2023-05-05T15:38:43.623Z,99716.98
2023-05-05T15:41:46.383Z,99716.98
2023-05-05T15:44:49.164Z,99718.21
2023-05-05T15:47:52.972Z,99709.61
2023-05-05T15:50:55.918Z,99707.09
2023-05-05T15:53:59.543Z,99707.13
2023-05-05T15:57:03.219Z,99707.11
2023-05-05T16:00:07.979Z,99700.80
2023-05-05T16:03:10.782Z,99705.30
2023-05-05T16:06:13.828Z,99704.02
2023-05-05T16:09:16.607Z,99708.96
2023-05-05T16:12:20.989Z,99709.34
2023-05-05T16:15:23.772Z,99713.34
2023-05-05T16:18:26.837Z,99710.90
2023-05-05T16:21:29.561Z,99710.25
2023-05-05T16:24:32.472Z,99716.32
2023-05-05T16:27:35.549Z,99719.73
2023-05-05T16:30:39.837Z,99715.84
2023-05-05T16:33:43.836Z,99721.44
2023-05-05T16:36:46.982Z,99718.53
2023-05-05T16:39:49.685Z,99719.52
2023-05-05T16:42:52.401Z,99715.59
2023-05-05T16:45:55.173Z,99717.75
2023-05-05T16:48:57.953Z,99712.48
2023-05-05T16:52:00.820Z,99715.75
2023-05-05T16:55:04.916Z,99715.31
2023-05-05T16:58:08.030Z,99715.36
2023-05-05T17:01:10.767Z,99717.06
2023-05-05T17:04:13.634Z,99726.68
2023-05-05T17:07:16.395Z,99724.57
2023-05-05T17:10:19.201Z,99724.27
2023-05-05T17:13:23.509Z,99729.05
2023-05-05T17:16:26.386Z,99736.07
2023-05-05T17:19:29.240Z,99735.17
2023-05-05T17:22:32.246Z,99738.31
2023-05-05T17:25:35.937Z,99739.48
2023-05-05T17:28:38.708Z,99740.99
2023-05-05T17:31:42.117Z,99743.30
2023-05-05T17:34:45.017Z,99743.23
2023-05-05T17:37:47.894Z,99750.19
2023-05-05T17:40:50.784Z,99752.02
2023-05-05T17:43:53.549Z,99753.45
2023-05-05T17:46:56.327Z,99750.52
2023-05-05T17:49:59.550Z,99751.94
2023-05-05T17:53:02.288Z,99755.55
2023-05-05T17:56:07.959Z,99753.30
2023-05-05T17:59:11.637Z,99752.26
2023-05-05T18:02:14.422Z,99753.07
2023-05-05T18:05:17.366Z,99752.39
2023-05-05T18:08:20.157Z,99748.88
2023-05-05T18:11:27.654Z,99751.33
2023-05-05T18:14:31.719Z,99756.47
2023-05-05T18:17:34.604Z,99756.65
2023-05-05T18:20:37.472Z,99758.36
2023-05-05T18:23:40.617Z,99756.05
2023-05-05T18:26:43.496Z,99756.20
2023-05-05T18:29:46.275Z,99762.30
2023-05-05T18:32:49.116Z,99770.05
2023-05-05T18:35:51.968Z,99778.89
2023-05-05T18:38:54.773Z,99782.30
2023-05-05T18:41:57.515Z,99783.48
2023-05-05T18:45:00.258Z,99790.05
2023-05-05T18:48:03.275Z,99790.63
2023-05-05T18:51:07.556Z,99793.52
2023-05-05T18:54:10.328Z,99796.70
2023-05-05T18:57:13.060Z,99803.02
2023-05-05T19:00:15.918Z,99795.48
2023-05-05T19:03:19.736Z,99797.52
2023-05-05T19:06:22.555Z,99794.38
2023-05-05T19:09:25.513Z,99796.22
2023-05-05T19:12:28.233Z,99791.86
2023-05-05T19:15:32.459Z,99791.30
2023-05-05T19:18:35.232Z,99785.38
2023-05-05T19:21:38.638Z,99792.78
2023-05-05T19:24:41.345Z,99789.58
2023-05-05T19:27:44.380Z,99786.36
2023-05-05T19:30:48.710Z,99790.34
2023-05-05T19:33:51.653Z,99790.70
2023-05-05T19:36:54.396Z,99793.79
2023-05-05T19:39:57.285Z,99794.96
2023-05-05T19:42:59.999Z,99798.73
2023-05-05T19:46:02.947Z,99796.38
2023-05-05T19:49:06.257Z,99799.20
2023-05-05T19:52:09.051Z,99799.36
2023-05-05T19:55:13.253Z,99801.83
2023-05-05T19:58:16.131Z,99806.71
2023-05-05T20:01:18.900Z,99801.67
2023-05-05T20:04:21.682Z,99806.05
2023-05-05T20:07:24.444Z,99808.15
2023-05-05T20:10:27.167Z,99803.22
2023-05-05T20:13:29.929Z,99804.88
2023-05-05T20:16:33.703Z,99797.48
2023-05-05T20:19:36.520Z,99801.59
2023-05-05T20:22:40.605Z,99804.55
2023-05-05T20:25:43.778Z,99799.69
2023-05-05T20:28:46.550Z,99794.20
2023-05-05T20:31:49.475Z,99791.19
2023-05-05T20:34:52.395Z,99789.66
2023-05-05T20:37:55.278Z,99796.20
2023-05-05T20:40:58.151Z,99786.34
2023-05-05T20:44:01.028Z,99787.19
2023-05-05T20:47:04.582Z,99781.02
2023-05-05T20:50:08.570Z,99784.52
2023-05-05T20:53:15.399Z,99783.90
2023-05-05T20:56:18.110Z,99784.24
2023-05-05T20:59:20.860Z,99788.09
2023-05-05T21:02:23.680Z,99791.23
2023-05-05T21:05:26.798Z,99789.14
2023-05-05T21:08:30.707Z,99785.76
2023-05-05T21:11:33.458Z,99789.53
2023-05-05T21:14:36.222Z,99787.70
2023-05-05T21:17:39.014Z,99786.39
2023-05-05T21:20:41.798Z,99788.92
2023-05-05T21:23:47.883Z,99782.64
2023-05-05T21:26:50.689Z,99778.71
2023-05-05T21:29:53.432Z,99777.42
2023-05-05T21:32:56.252Z,99776.73
2023-05-05T21:35:59.178Z,99771.04
2023-05-05T21:39:02.081Z,99781.34
2023-05-05T21:42:04.813Z,99787.25
2023-05-05T21:45:08.284Z,99786.49
2023-05-05T21:48:11.081Z,99783.70
2023-05-05T21:51:13.807Z,99781.41
2023-05-05T21:54:16.972Z,99770.73
2023-05-05T21:57:19.783Z,99770.75
2023-05-05T22:00:22.762Z,99768.13
2023-05-05T22:03:26.286Z,99767.70
2023-05-05T22:06:29.124Z,99765.36
2023-05-05T22:09:31.989Z,99762.77
2023-05-05T22:12:34.778Z,99762.62
2023-05-05T22:15:46.092Z,99760.98
2023-05-05T22:18:50.424Z,99760.92
2023-05-05T22:21:53.426Z,99755.34
2023-05-05T22:24:56.192Z,99754.69
2023-05-05T22:27:59.027Z,99752.66
2023-05-05T22:31:01.976Z,99748.61
2023-05-05T22:34:04.892Z,99755.69
2023-05-05T22:37:07.657Z,99750.77
2023-05-05T22:40:13.001Z,99749.62
2023-05-05T22:43:15.874Z,99749.55
2023-05-05T22:46:18.697Z,99748.13
2023-05-05T22:49:22.755Z,99746.23
2023-05-05T22:52:28.212Z,99748.94
2023-05-05T22:55:30.939Z,99747.50
2023-05-05T22:58:33.755Z,99749.23
2023-05-05T23:01:36.701Z,99746.05
2023-05-05T23:04:39.530Z,99746.55
2023-05-05T23:07:42.350Z,99747.59
2023-05-05T23:10:45.097Z,99749.83
2023-05-05T23:13:47.885Z,99751.34
2023-05-05T23:16:50.892Z,99753.07
2023-05-05T23:19:53.676Z,99749.39
2023-05-05T23:22:56.467Z,99749.48
2023-05-05T23:25:59.253Z,99745.22
2023-05-05T23:29:01.970Z,99739.90
2023-05-05T23:32:05.565Z,99738.86
2023-05-05T23:35:09.137Z,99734.54
2023-05-05T23:38:12.179Z,99732.47
2023-05-05T23:41:14.947Z,99725.14
2023-05-05T23:44:17.735Z,99721.10
2023-05-05T23:47:20.473Z,99724.58
2023-05-05T23:50:23.310Z,99716.91
2023-05-05T23:53:26.088Z,99714.39
2023-05-05T23:56:28.832Z,99710.79
2023-05-05T23:59:31.644Z,99713.10
